sensor_id;sensor_type;location;lat;lon;timestamp;pressure;altitude;pressure_sealevel;temperature;humidity
74242;BME280;62599;49.146;10.426;2023-03-13T00:01:31;95242.72;;;5.72;96.93
74242;BME280;62599;49.146;10.426;2023-03-13T00:03:57;95241.00;;;5.76;97.52
74242;BME280;62599;49.146;10.426;2023-03-13T00:06:25;95244.94;;;5.78;98.15
74242;BME280;62599;49.146;10.426;2023-03-13T00:08:51;95246.97;;;5.73;97.69
74242;BME280;62599;49.146;10.426;2023-03-13T00:11:16;95248.56;;;5.74;98.10
74242;BME280;62599;49.146;10.426;2023-03-13T00:13:42;95253.56;;;5.75;98.31
74242;BME280;62599;49.146;10.426;2023-03-13T00:16:13;95246.22;;;5.81;99.35
74242;BME280;62599;49.146;10.426;2023-03-13T00:18:44;95234.75;;;5.89;97.88
74242;BME280;62599;49.146;10.426;2023-03-13T00:21:10;95234.75;;;5.89;97.81
74242;BME280;62599;49.146;10.426;2023-03-13T00:23:36;95237.94;;;6.00;98.32
74242;BME280;62599;49.146;10.426;2023-03-13T00:26:08;95231.81;;;5.99;97.94
74242;BME280;62599;49.146;10.426;2023-03-13T00:28:34;95229.13;;;5.99;96.94
74242;BME280;62599;49.146;10.426;2023-03-13T00:31:04;95228.81;;;6.01;97.58
74242;BME280;62599;49.146;10.426;2023-03-13T00:33:32;95243.44;;;6.03;97.61
74242;BME280;62599;49.146;10.426;2023-03-13T00:36:02;95249.88;;;6.02;96.93
74242;BME280;62599;49.146;10.426;2023-03-13T00:38:29;95256.03;;;6.03;97.58
74242;BME280;62599;49.146;10.426;2023-03-13T00:41:03;95245.63;;;6.01;97.25
74242;BME280;62599;49.146;10.426;2023-03-13T00:43:28;95231.66;;;5.96;97.62
74242;BME280;62599;49.146;10.426;2023-03-13T00:45:54;95229.41;;;5.89;97.46
74242;BME280;62599;49.146;10.426;2023-03-13T00:48:20;95233.00;;;5.85;97.31
74242;BME280;62599;49.146;10.426;2023-03-13T00:50:45;95225.91;;;5.80;98.11
74242;BME280;62599;49.146;10.426;2023-03-13T00:53:11;95233.94;;;5.80;99.02
74242;BME280;62599;49.146;10.426;2023-03-13T00:55:36;95236.16;;;5.78;99.35
74242;BME280;62599;49.146;10.426;2023-03-13T00:58:01;95231.41;;;5.75;98.92
74242;BME280;62599;49.146;10.426;2023-03-13T01:00:27;95223.25;;;5.71;98.74
74242;BME280;62599;49.146;10.426;2023-03-13T01:02:52;95227.31;;;5.69;99.70
74242;BME280;62599;49.146;10.426;2023-03-13T01:05:17;95232.34;;;5.70;100.00
74242;BME280;62599;49.146;10.426;2023-03-13T01:07:43;95220.72;;;5.75;99.93
74242;BME280;62599;49.146;10.426;2023-03-13T01:10:09;95214.28;;;5.76;98.96
74242;BME280;62599;49.146;10.426;2023-03-13T01:12:34;95209.88;;;5.80;98.50
74242;BME280;62599;49.146;10.426;2023-03-13T01:15:00;95209.25;;;5.74;98.75
74242;BME280;62599;49.146;10.426;2023-03-13T01:17:25;95204.38;;;5.68;98.83
74242;BME280;62599;49.146;10.426;2023-03-13T01:19:54;95202.31;;;5.65;99.05
74242;BME280;62599;49.146;10.426;2023-03-13T01:22:20;95199.03;;;5.68;99.54
74242;BME280;62599;49.146;10.426;2023-03-13T01:24:45;95193.84;;;5.71;98.74
74242;BME280;62599;49.146;10.426;2023-03-13T01:27:14;95189.63;;;5.70;98.89
74242;BME280;62599;49.146;10.426;2023-03-13T01:29:39;95198.72;;;5.78;99.28
74242;BME280;62599;49.146;10.426;2023-03-13T01:32:05;95193.72;;;5.85;98.40
74242;BME280;62599;49.146;10.426;2023-03-13T01:34:31;95189.44;;;5.84;98.33
74242;BME280;62599;49.146;10.426;2023-03-13T01:36:56;95183.81;;;5.86;98.30
74242;BME280;62599;49.146;10.426;2023-03-13T01:39:21;95175.47;;;5.87;98.08
74242;BME280;62599;49.146;10.426;2023-03-13T01:41:47;95174.69;;;5.87;97.26
74242;BME280;62599;49.146;10.426;2023-03-13T01:44:22;95164.94;;;5.82;97.76
74242;BME280;62599;49.146;10.426;2023-03-13T01:46:48;95162.41;;;5.68;99.45
74242;BME280;62599;49.146;10.426;2023-03-13T01:49:33;95162.41;;;5.60;99.99
74242;BME280;62599;49.146;10.426;2023-03-13T01:52:05;95166.00;;;5.46;100.00
74242;BME280;62599;49.146;10.426;2023-03-13T01:54:40;95160.47;;;5.34;100.00
74242;BME280;62599;49.146;10.426;2023-03-13T01:59:47;95146.47;;;5.20;100.00
74242;BME280;62599;49.146;10.426;2023-03-13T02:02:14;95153.19;;;5.17;100.00
74242;BME280;62599;49.146;10.426;2023-03-13T02:04:44;95154.31;;;5.16;100.00
74242;BME280;62599;49.146;10.426;2023-03-13T02:07:16;95145.50;;;5.16;100.00
74242;BME280;62599;49.146;10.426;2023-03-13T02:09:43;95144.25;;;5.13;100.00
74242;BME280;62599;49.146;10.426;2023-03-13T02:12:16;95141.22;;;5.06;100.00
74242;BME280;62599;49.146;10.426;2023-03-13T02:14:48;95139.50;;;5.01;100.00
74242;BME280;62599;49.146;10.426;2023-03-13T02:17:14;95135.84;;;4.97;100.00
74242;BME280;62599;49.146;10.426;2023-03-13T02:19:48;95135.06;;;4.97;100.00
74242;BME280;62599;49.146;10.426;2023-03-13T02:27:51;95127.19;;;4.83;100.00
74242;BME280;62599;49.146;10.426;2023-03-13T02:30:19;95123.25;;;4.80;100.00
74242;BME280;62599;49.146;10.426;2023-03-13T02:32:45;95127.81;;;4.80;100.00
74242;BME280;62599;49.146;10.426;2023-03-13T02:35:13;95121.97;;;4.78;100.00
74242;BME280;62599;49.146;10.426;2023-03-13T02:37:44;95115.38;;;4.75;100.00
74242;BME280;62599;49.146;10.426;2023-03-13T02:40:16;95113.03;;;4.74;100.00
74242;BME280;62599;49.146;10.426;2023-03-13T02:42:43;95109.25;;;4.75;100.00
74242;BME280;62599;49.146;10.426;2023-03-13T02:45:13;95095.47;;;4.73;100.00
74242;BME280;62599;49.146;10.426;2023-03-13T02:47:39;95093.06;;;4.71;100.00
74242;BME280;62599;49.146;10.426;2023-03-13T02:50:04;95092.00;;;4.72;100.00
74242;BME280;62599;49.146;10.426;2023-03-13T02:52:33;95088.53;;;4.72;100.00
74242;BME280;62599;49.146;10.426;2023-03-13T02:55:05;95087.63;;;4.76;100.00
74242;BME280;62599;49.146;10.426;2023-03-13T02:57:32;95088.22;;;4.73;100.00
74242;BME280;62599;49.146;10.426;2023-03-13T02:59:59;95084.44;;;4.66;100.00
74242;BME280;62599;49.146;10.426;2023-03-13T03:02:25;95079.72;;;4.63;100.00
74242;BME280;62599;49.146;10.426;2023-03-13T03:04:50;95076.56;;;4.61;100.00
74242;BME280;62599;49.146;10.426;2023-03-13T03:07:15;95076.28;;;4.62;100.00
74242;BME280;62599;49.146;10.426;2023-03-13T03:09:41;95065.00;;;4.65;100.00
74242;BME280;62599;49.146;10.426;2023-03-13T03:12:06;95058.72;;;4.70;100.00
74242;BME280;62599;49.146;10.426;2023-03-13T03:14:32;95054.78;;;4.67;100.00
74242;BME280;62599;49.146;10.426;2023-03-13T03:16:57;95057.16;;;4.69;100.00
74242;BME280;62599;49.146;10.426;2023-03-13T03:19:23;95046.16;;;4.70;100.00
74242;BME280;62599;49.146;10.426;2023-03-13T03:21:48;95048.06;;;4.70;100.00
74242;BME280;62599;49.146;10.426;2023-03-13T03:24:14;95047.56;;;4.68;100.00
74242;BME280;62599;49.146;10.426;2023-03-13T03:26:40;95046.63;;;4.64;100.00
74242;BME280;62599;49.146;10.426;2023-03-13T03:29:05;95048.00;;;4.61;100.00
74242;BME280;62599;49.146;10.426;2023-03-13T03:31:33;95039.22;;;4.61;100.00
74242;BME280;62599;49.146;10.426;2023-03-13T03:33:58;95042.53;;;4.57;100.00
74242;BME280;62599;49.146;10.426;2023-03-13T03:36:24;95037.06;;;4.63;100.00
74242;BME280;62599;49.146;10.426;2023-03-13T03:38:50;95031.09;;;4.66;100.00
74242;BME280;62599;49.146;10.426;2023-03-13T03:41:16;95036.59;;;4.69;100.00
74242;BME280;62599;49.146;10.426;2023-03-13T03:43:43;95038.50;;;4.69;100.00
74242;BME280;62599;49.146;10.426;2023-03-13T03:46:08;95032.84;;;4.70;100.00
74242;BME280;62599;49.146;10.426;2023-03-13T03:48:35;95036.44;;;4.74;100.00
74242;BME280;62599;49.146;10.426;2023-03-13T03:51:00;95039.44;;;4.73;100.00
74242;BME280;62599;49.146;10.426;2023-03-13T03:53:25;95031.72;;;4.71;100.00
74242;BME280;62599;49.146;10.426;2023-03-13T03:55:55;95036.00;;;4.72;100.00
74242;BME280;62599;49.146;10.426;2023-03-13T03:58:20;95033.94;;;4.69;100.00
74242;BME280;62599;49.146;10.426;2023-03-13T04:00:46;95024.34;;;4.68;100.00
74242;BME280;62599;49.146;10.426;2023-03-13T04:03:13;95035.66;;;4.65;100.00
74242;BME280;62599;49.146;10.426;2023-03-13T04:05:39;95025.78;;;4.66;100.00
74242;BME280;62599;49.146;10.426;2023-03-13T04:08:05;95022.94;;;4.71;100.00
74242;BME280;62599;49.146;10.426;2023-03-13T04:10:31;95019.50;;;4.70;100.00
74242;BME280;62599;49.146;10.426;2023-03-13T04:12:56;95012.28;;;4.71;100.00
74242;BME280;62599;49.146;10.426;2023-03-13T04:15:48;95011.50;;;4.70;100.00
74242;BME280;62599;49.146;10.426;2023-03-13T04:18:12;95010.88;;;4.73;100.00
74242;BME280;62599;49.146;10.426;2023-03-13T04:20:38;95011.50;;;4.79;100.00
74242;BME280;62599;49.146;10.426;2023-03-13T04:23:03;95006.81;;;4.76;100.00
74242;BME280;62599;49.146;10.426;2023-03-13T04:25:29;95000.22;;;4.73;100.00
74242;BME280;62599;49.146;10.426;2023-03-13T04:27:54;94997.06;;;4.71;100.00
74242;BME280;62599;49.146;10.426;2023-03-13T04:30:19;94997.84;;;4.72;100.00
74242;BME280;62599;49.146;10.426;2023-03-13T04:32:45;95004.59;;;4.69;100.00
74242;BME280;62599;49.146;10.426;2023-03-13T04:35:10;94995.31;;;4.67;100.00
74242;BME280;62599;49.146;10.426;2023-03-13T04:37:36;94998.31;;;4.65;100.00
74242;BME280;62599;49.146;10.426;2023-03-13T04:40:01;94991.38;;;4.64;100.00
74242;BME280;62599;49.146;10.426;2023-03-13T04:42:27;94993.94;;;4.69;100.00
74242;BME280;62599;49.146;10.426;2023-03-13T04:44:52;94992.81;;;4.70;100.00
74242;BME280;62599;49.146;10.426;2023-03-13T04:47:17;94995.81;;;4.69;100.00
74242;BME280;62599;49.146;10.426;2023-03-13T04:49:43;94993.16;;;4.69;100.00
74242;BME280;62599;49.146;10.426;2023-03-13T04:52:08;94995.50;;;4.70;100.00
74242;BME280;62599;49.146;10.426;2023-03-13T04:54:34;94991.44;;;4.73;100.00
74242;BME280;62599;49.146;10.426;2023-03-13T04:56:59;94985.31;;;4.72;100.00
74242;BME280;62599;49.146;10.426;2023-03-13T04:59:24;94989.69;;;4.77;100.00
74242;BME280;62599;49.146;10.426;2023-03-13T05:01:50;94975.75;;;4.80;100.00
74242;BME280;62599;49.146;10.426;2023-03-13T05:04:15;94979.19;;;4.80;100.00
74242;BME280;62599;49.146;10.426;2023-03-13T05:06:41;94971.03;;;4.86;100.00
74242;BME280;62599;49.146;10.426;2023-03-13T05:09:06;94965.84;;;4.89;100.00
74242;BME280;62599;49.146;10.426;2023-03-13T05:11:32;94963.69;;;4.91;100.00
74242;BME280;62599;49.146;10.426;2023-03-13T05:13:58;94959.91;;;4.92;100.00
74242;BME280;62599;49.146;10.426;2023-03-13T05:16:23;94960.06;;;4.96;100.00
74242;BME280;62599;49.146;10.426;2023-03-13T05:18:48;94952.38;;;4.94;100.00
74242;BME280;62599;49.146;10.426;2023-03-13T05:21:14;94950.16;;;4.96;100.00
74242;BME280;62599;49.146;10.426;2023-03-13T05:23:39;94944.66;;;4.93;100.00
74242;BME280;62599;49.146;10.426;2023-03-13T05:26:05;94940.28;;;4.88;100.00
74242;BME280;62599;49.146;10.426;2023-03-13T05:28:30;94943.72;;;4.89;100.00
74242;BME280;62599;49.146;10.426;2023-03-13T05:30:56;94937.13;;;4.86;100.00
74242;BME280;62599;49.146;10.426;2023-03-13T05:33:21;94932.28;;;4.88;100.00
74242;BME280;62599;49.146;10.426;2023-03-13T05:35:46;94934.63;;;4.90;100.00
74242;BME280;62599;49.146;10.426;2023-03-13T05:38:12;94931.78;;;4.86;100.00
74242;BME280;62599;49.146;10.426;2023-03-13T05:40:38;94925.84;;;4.89;100.00
74242;BME280;62599;49.146;10.426;2023-03-13T05:43:03;94922.09;;;4.90;100.00
74242;BME280;62599;49.146;10.426;2023-03-13T05:45:29;94926.94;;;4.88;100.00
74242;BME280;62599;49.146;10.426;2023-03-13T05:47:54;94917.69;;;4.94;100.00
74242;BME280;62599;49.146;10.426;2023-03-13T05:50:20;94919.72;;;4.97;100.00
74242;BME280;62599;49.146;10.426;2023-03-13T05:52:48;94913.44;;;5.02;100.00
74242;BME280;62599;49.146;10.426;2023-03-13T05:55:14;94914.22;;;5.02;100.00
74242;BME280;62599;49.146;10.426;2023-03-13T05:57:43;94918.94;;;5.05;100.00
74242;BME280;62599;49.146;10.426;2023-03-13T06:00:09;94920.34;;;5.12;100.00
74242;BME280;62599;49.146;10.426;2023-03-13T06:02:35;94920.63;;;5.19;100.00
74242;BME280;62599;49.146;10.426;2023-03-13T06:05:00;94910.13;;;5.31;100.00
74242;BME280;62599;49.146;10.426;2023-03-13T06:07:26;94914.03;;;5.42;100.00
74242;BME280;62599;49.146;10.426;2023-03-13T06:09:51;94905.97;;;5.51;100.00
74242;BME280;62599;49.146;10.426;2023-03-13T06:12:16;94910.41;;;5.55;100.00
74242;BME280;62599;49.146;10.426;2023-03-13T06:14:42;94904.09;;;5.60;100.00
74242;BME280;62599;49.146;10.426;2023-03-13T06:17:07;94909.59;;;5.64;100.00
74242;BME280;62599;49.146;10.426;2023-03-13T06:19:32;94902.94;;;5.70;100.00
74242;BME280;62599;49.146;10.426;2023-03-13T06:21:58;94896.19;;;5.72;100.00
74242;BME280;62599;49.146;10.426;2023-03-13T06:24:23;94890.53;;;5.74;100.00
74242;BME280;62599;49.146;10.426;2023-03-13T06:26:49;94895.22;;;5.77;100.00
74242;BME280;62599;49.146;10.426;2023-03-13T06:29:15;94893.03;;;5.79;100.00
74242;BME280;62599;49.146;10.426;2023-03-13T06:31:40;94888.16;;;5.81;100.00
74242;BME280;62599;49.146;10.426;2023-03-13T06:34:07;94882.00;;;5.80;100.00
74242;BME280;62599;49.146;10.426;2023-03-13T06:36:35;94875.72;;;5.85;100.00
74242;BME280;62599;49.146;10.426;2023-03-13T06:39:00;94871.75;;;5.91;100.00
74242;BME280;62599;49.146;10.426;2023-03-13T06:41:25;94879.63;;;5.96;100.00
74242;BME280;62599;49.146;10.426;2023-03-13T06:43:51;94879.91;;;6.03;100.00
74242;BME280;62599;49.146;10.426;2023-03-13T06:46:19;94877.03;;;6.09;100.00
74242;BME280;62599;49.146;10.426;2023-03-13T06:48:46;94869.94;;;6.13;100.00
74242;BME280;62599;49.146;10.426;2023-03-13T06:51:12;94875.41;;;6.25;100.00
74242;BME280;62599;49.146;10.426;2023-03-13T06:53:38;94859.75;;;6.36;100.00
74242;BME280;62599;49.146;10.426;2023-03-13T06:56:04;94863.16;;;6.45;100.00
74242;BME280;62599;49.146;10.426;2023-03-13T06:58:30;94861.84;;;6.51;100.00
74242;BME280;62599;49.146;10.426;2023-03-13T07:00:55;94861.88;;;6.72;100.00
74242;BME280;62599;49.146;10.426;2023-03-13T07:03:20;94868.94;;;6.89;100.00
74242;BME280;62599;49.146;10.426;2023-03-13T07:05:57;94852.16;;;7.00;100.00
74242;BME280;62599;49.146;10.426;2023-03-13T07:08:25;94850.56;;;7.20;100.00
74242;BME280;62599;49.146;10.426;2023-03-13T07:10:51;94861.13;;;7.38;100.00
74242;BME280;62599;49.146;10.426;2023-03-13T07:13:17;94856.00;;;7.45;100.00
74242;BME280;62599;49.146;10.426;2023-03-13T07:15:46;94867.38;;;7.54;100.00
74242;BME280;62599;49.146;10.426;2023-03-13T07:18:12;94874.34;;;7.67;100.00
74242;BME280;62599;49.146;10.426;2023-03-13T07:20:38;94863.44;;;7.85;100.00
74242;BME280;62599;49.146;10.426;2023-03-13T07:23:03;94847.44;;;8.13;100.00
74242;BME280;62599;49.146;10.426;2023-03-13T07:25:28;94849.13;;;8.42;100.00
74242;BME280;62599;49.146;10.426;2023-03-13T07:27:54;94847.06;;;8.63;99.00
74242;BME280;62599;49.146;10.426;2023-03-13T07:30:20;94848.72;;;8.80;98.93
74242;BME280;62599;49.146;10.426;2023-03-13T07:32:46;94855.34;;;8.99;97.04
74242;BME280;62599;49.146;10.426;2023-03-13T07:35:11;94856.53;;;9.13;95.40
74242;BME280;62599;49.146;10.426;2023-03-13T07:37:37;94839.91;;;9.24;94.14
74242;BME280;62599;49.146;10.426;2023-03-13T07:40:02;94845.13;;;9.32;93.83
74242;BME280;62599;49.146;10.426;2023-03-13T07:42:28;94850.69;;;9.39;94.19
74242;BME280;62599;49.146;10.426;2023-03-13T07:44:54;94847.41;;;9.46;92.97
74242;BME280;62599;49.146;10.426;2023-03-13T07:47:19;94839.44;;;9.50;92.64
74242;BME280;62599;49.146;10.426;2023-03-13T07:49:45;94845.88;;;9.61;92.10
74242;BME280;62599;49.146;10.426;2023-03-13T07:52:11;94856.38;;;9.66;91.79
74242;BME280;62599;49.146;10.426;2023-03-13T07:54:36;94859.25;;;9.73;92.29
74242;BME280;62599;49.146;10.426;2023-03-13T07:57:02;94839.38;;;9.78;91.67
74242;BME280;62599;49.146;10.426;2023-03-13T07:59:28;94847.53;;;9.81;91.75
74242;BME280;62599;49.146;10.426;2023-03-13T08:01:53;94844.94;;;9.85;91.51
74242;BME280;62599;49.146;10.426;2023-03-13T08:04:19;94842.41;;;9.92;91.01
74242;BME280;62599;49.146;10.426;2023-03-13T08:06:44;94837.63;;;10.01;90.84
74242;BME280;62599;49.146;10.426;2023-03-13T08:09:09;94833.09;;;10.05;89.83
74242;BME280;62599;49.146;10.426;2023-03-13T08:11:37;94843.94;;;10.09;89.14
74242;BME280;62599;49.146;10.426;2023-03-13T08:14:03;94846.47;;;10.02;90.34
74242;BME280;62599;49.146;10.426;2023-03-13T08:16:33;94830.53;;;9.93;91.39
74242;BME280;62599;49.146;10.426;2023-03-13T08:19:00;94839.19;;;9.86;91.91
74242;BME280;62599;49.146;10.426;2023-03-13T08:21:31;94835.91;;;9.77;93.00
74242;BME280;62599;49.146;10.426;2023-03-13T08:23:59;94842.31;;;9.73;93.72
74242;BME280;62599;49.146;10.426;2023-03-13T08:26:28;94835.91;;;9.77;94.39
74242;BME280;62599;49.146;10.426;2023-03-13T08:28:58;94830.25;;;9.82;95.33
74242;BME280;62599;49.146;10.426;2023-03-13T08:31:27;94818.28;;;9.96;93.69
74242;BME280;62599;49.146;10.426;2023-03-13T08:33:52;94830.41;;;10.05;93.53
74242;BME280;62599;49.146;10.426;2023-03-13T08:36:20;94827.03;;;10.08;93.04
74242;BME280;62599;49.146;10.426;2023-03-13T08:38:48;94821.25;;;10.06;92.80
74242;BME280;62599;49.146;10.426;2023-03-13T08:41:16;94809.69;;;10.06;93.59
74242;BME280;62599;49.146;10.426;2023-03-13T08:43:42;94809.06;;;10.12;93.40
74242;BME280;62599;49.146;10.426;2023-03-13T08:46:08;94815.66;;;10.15;94.18
74242;BME280;62599;49.146;10.426;2023-03-13T08:48:34;94812.28;;;10.18;93.23
74242;BME280;62599;49.146;10.426;2023-03-13T08:53:26;94814.25;;;10.37;92.33
74242;BME280;62599;49.146;10.426;2023-03-13T08:55:52;94808.94;;;10.41;92.56
74242;BME280;62599;49.146;10.426;2023-03-13T08:58:18;94812.38;;;10.57;91.91
74242;BME280;62599;49.146;10.426;2023-03-13T09:00:43;94812.69;;;10.71;90.77
74242;BME280;62599;49.146;10.426;2023-03-13T09:03:09;94804.53;;;10.87;90.89
74242;BME280;62599;49.146;10.426;2023-03-13T09:05:36;94794.72;;;11.18;89.78
74242;BME280;62599;49.146;10.426;2023-03-13T09:08:01;94790.84;;;11.38;88.79
74242;BME280;62599;49.146;10.426;2023-03-13T09:10:27;94785.66;;;11.49;88.71
74242;BME280;62599;49.146;10.426;2023-03-13T09:12:52;94799.59;;;11.54;87.62
74242;BME280;62599;49.146;10.426;2023-03-13T09:15:17;94803.88;;;11.55;87.01
74242;BME280;62599;49.146;10.426;2023-03-13T09:17:43;94803.50;;;11.57;87.04
74242;BME280;62599;49.146;10.426;2023-03-13T09:20:09;94786.00;;;11.70;87.53
74242;BME280;62599;49.146;10.426;2023-03-13T09:22:34;94793.84;;;11.79;85.87
74242;BME280;62599;49.146;10.426;2023-03-13T09:25:00;94796.47;;;11.95;84.43
74242;BME280;62599;49.146;10.426;2023-03-13T09:27:25;94793.66;;;12.14;84.24
74242;BME280;62599;49.146;10.426;2023-03-13T09:29:52;94798.44;;;12.24;84.24
74242;BME280;62599;49.146;10.426;2023-03-13T09:32:18;94774.66;;;12.34;83.65
74242;BME280;62599;49.146;10.426;2023-03-13T09:34:45;94787.16;;;12.45;81.49
74242;BME280;62599;49.146;10.426;2023-03-13T09:37:11;94781.72;;;12.42;81.55
74242;BME280;62599;49.146;10.426;2023-03-13T09:39:37;94778.81;;;12.27;82.80
74242;BME280;62599;49.146;10.426;2023-03-13T09:42:15;94781.16;;;12.29;82.67
74242;BME280;62599;49.146;10.426;2023-03-13T09:44:51;94786.28;;;12.38;82.85
74242;BME280;62599;49.146;10.426;2023-03-13T09:47:27;94794.91;;;12.47;82.18
74242;BME280;62599;49.146;10.426;2023-03-13T09:50:01;94794.47;;;12.71;82.20
74242;BME280;62599;49.146;10.426;2023-03-13T09:52:33;94788.81;;;12.84;80.20
74242;BME280;62599;49.146;10.426;2023-03-13T09:55:13;94793.22;;;12.99;78.98
74242;BME280;62599;49.146;10.426;2023-03-13T09:57:50;94795.63;;;13.04;79.23
74242;BME280;62599;49.146;10.426;2023-03-13T10:00:30;94796.44;;;13.08;78.03
74242;BME280;62599;49.146;10.426;2023-03-13T10:03:17;94798.09;;;13.20;77.24
74242;BME280;62599;49.146;10.426;2023-03-13T10:05:51;94801.88;;;13.12;77.97
74242;BME280;62599;49.146;10.426;2023-03-13T10:08:30;94793.56;;;13.28;77.96
74242;BME280;62599;49.146;10.426;2023-03-13T10:11:23;94802.41;;;13.58;77.30
74242;BME280;62599;49.146;10.426;2023-03-13T10:14:18;94798.00;;;13.84;75.74
74242;BME280;62599;49.146;10.426;2023-03-13T10:19:38;94813.63;;;14.08;74.39
74242;BME280;62599;49.146;10.426;2023-03-13T10:22:15;94809.84;;;14.16;74.20
74242;BME280;62599;49.146;10.426;2023-03-13T10:25:03;94807.78;;;13.99;73.33
74242;BME280;62599;49.146;10.426;2023-03-13T10:27:30;94809.75;;;14.02;73.45
74242;BME280;62599;49.146;10.426;2023-03-13T10:29:56;94816.00;;;14.13;73.99
74242;BME280;62599;49.146;10.426;2023-03-13T10:32:21;94804.75;;;14.11;72.93
74242;BME280;62599;49.146;10.426;2023-03-13T10:34:59;94807.59;;;14.29;72.13
74242;BME280;62599;49.146;10.426;2023-03-13T10:40:59;94805.75;;;13.89;73.64
74242;BME280;62599;49.146;10.426;2023-03-13T10:43:26;94773.41;;;13.59;72.66
74242;BME280;62599;49.146;10.426;2023-03-13T10:45:52;94785.69;;;13.49;73.93
74242;BME280;62599;49.146;10.426;2023-03-13T10:48:20;94800.50;;;13.62;75.20
74242;BME280;62599;49.146;10.426;2023-03-13T10:50:49;94791.72;;;13.76;74.38
74242;BME280;62599;49.146;10.426;2023-03-13T10:55:54;94776.44;;;13.98;72.89
74242;BME280;62599;49.146;10.426;2023-03-13T10:58:32;94784.56;;;13.98;72.47
74242;BME280;62599;49.146;10.426;2023-03-13T11:01:39;94764.50;;;14.06;71.77
74242;BME280;62599;49.146;10.426;2023-03-13T11:06:58;94770.09;;;13.80;73.27
74242;BME280;62599;49.146;10.426;2023-03-13T11:09:25;94763.19;;;13.86;73.89
74242;BME280;62599;49.146;10.426;2023-03-13T11:11:53;94750.91;;;13.99;73.74
74242;BME280;62599;49.146;10.426;2023-03-13T11:14:24;94762.69;;;14.25;73.76
74242;BME280;62599;49.146;10.426;2023-03-13T11:17:23;94758.69;;;14.66;70.89
74242;BME280;62599;49.146;10.426;2023-03-13T11:26:29;94741.50;;;15.57;66.36
74242;BME280;62599;49.146;10.426;2023-03-13T11:29:04;94748.50;;;15.54;66.16
74242;BME280;62599;49.146;10.426;2023-03-13T11:31:40;94743.06;;;15.61;66.46
74242;BME280;62599;49.146;10.426;2023-03-13T11:36:57;94750.41;;;15.36;67.23
74242;BME280;62599;49.146;10.426;2023-03-13T11:42:29;94754.28;;;15.42;66.28
74242;BME280;62599;49.146;10.426;2023-03-13T11:45:10;94741.88;;;15.48;66.03
74242;BME280;62599;49.146;10.426;2023-03-13T11:47:55;94753.94;;;15.58;65.69
74242;BME280;62599;49.146;10.426;2023-03-13T11:53:17;94747.34;;;16.20;64.07
74242;BME280;62599;49.146;10.426;2023-03-13T11:56:06;94731.38;;;16.43;63.42
74242;BME280;62599;49.146;10.426;2023-03-13T12:01:30;94733.03;;;15.76;63.68
74242;BME280;62599;49.146;10.426;2023-03-13T12:06:50;94727.59;;;15.66;65.15
74242;BME280;62599;49.146;10.426;2023-03-13T12:12:14;94714.72;;;15.41;66.49
74242;BME280;62599;49.146;10.426;2023-03-13T12:14:59;94712.81;;;15.59;66.75
74242;BME280;62599;49.146;10.426;2023-03-13T12:17:36;94692.25;;;15.58;65.02
74242;BME280;62599;49.146;10.426;2023-03-13T12:20:12;94697.69;;;15.51;65.96
74242;BME280;62599;49.146;10.426;2023-03-13T12:22:56;94684.88;;;15.41;66.12
74242;BME280;62599;49.146;10.426;2023-03-13T12:33:41;94670.94;;;15.82;66.13
74242;BME280;62599;49.146;10.426;2023-03-13T12:36:14;94665.47;;;15.96;65.42
74242;BME280;62599;49.146;10.426;2023-03-13T12:39:05;94666.25;;;15.97;65.20
74242;BME280;62599;49.146;10.426;2023-03-13T12:41:53;94649.97;;;15.89;64.89
74242;BME280;62599;49.146;10.426;2023-03-13T12:44:22;94638.75;;;15.80;65.19
74242;BME280;62599;49.146;10.426;2023-03-13T12:47:19;94634.88;;;15.78;65.71
74242;BME280;62599;49.146;10.426;2023-03-13T12:55:36;94628.19;;;16.04;64.27
74242;BME280;62599;49.146;10.426;2023-03-13T12:58:22;94631.97;;;16.39;63.23
74242;BME280;62599;49.146;10.426;2023-03-13T13:00:50;94626.53;;;16.39;62.60
74242;BME280;62599;49.146;10.426;2023-03-13T13:06:03;94615.13;;;16.72;61.49
74242;BME280;62599;49.146;10.426;2023-03-13T13:08:35;94608.50;;;16.77;61.21
74242;BME280;62599;49.146;10.426;2023-03-13T13:16:50;94580.91;;;16.82;61.36
74242;BME280;62599;49.146;10.426;2023-03-13T13:24:52;94566.56;;;16.71;60.23
74242;BME280;62599;49.146;10.426;2023-03-13T13:29:57;94554.25;;;16.48;61.67
74242;BME280;62599;49.146;10.426;2023-03-13T13:37:32;94528.56;;;17.16;61.23
74242;BME280;62599;49.146;10.426;2023-03-13T13:40:28;94523.84;;;17.20;59.26
74242;BME280;62599;49.146;10.426;2023-03-13T13:43:03;94519.72;;;17.04;59.90
74242;BME280;62599;49.146;10.426;2023-03-13T13:45:35;94513.59;;;16.93;60.23
74242;BME280;62599;49.146;10.426;2023-03-13T13:48:14;94505.44;;;16.93;60.94
74242;BME280;62599;49.146;10.426;2023-03-13T13:51:18;94508.88;;;16.97;60.02
74242;BME280;62599;49.146;10.426;2023-03-13T14:01:45;94487.59;;;17.30;58.44
74242;BME280;62599;49.146;10.426;2023-03-13T14:04:35;94479.81;;;17.32;57.48
74242;BME280;62599;49.146;10.426;2023-03-13T14:07:03;94477.88;;;17.32;57.93
74242;BME280;62599;49.146;10.426;2023-03-13T14:12:34;94464.59;;;17.35;57.81
74242;BME280;62599;49.146;10.426;2023-03-13T14:15:20;94454.78;;;17.44;57.68
74242;BME280;62599;49.146;10.426;2023-03-13T14:17:48;94463.22;;;17.53;56.94
74242;BME280;62599;49.146;10.426;2023-03-13T14:22:45;94438.03;;;17.46;56.25
74242;BME280;62599;49.146;10.426;2023-03-13T14:25:11;94438.69;;;17.23;56.87
74242;BME280;62599;49.146;10.426;2023-03-13T14:27:43;94434.75;;;17.27;56.67
74242;BME280;62599;49.146;10.426;2023-03-13T14:30:10;94423.72;;;17.38;57.08
74242;BME280;62599;49.146;10.426;2023-03-13T14:32:36;94423.66;;;17.45;57.05
74242;BME280;62599;49.146;10.426;2023-03-13T14:35:07;94417.03;;;17.46;56.90
74242;BME280;62599;49.146;10.426;2023-03-13T14:37:37;94415.97;;;17.37;58.30